createdAt,value
2019-04-14T00:01:47.710Z,23.30
2019-04-14T00:04:22.501Z,22.00
2019-04-14T00:06:50.481Z,23.67
2019-04-14T00:09:20.483Z,23.10
2019-04-14T00:11:48.150Z,22.03
2019-04-14T00:14:16.266Z,20.87
2019-04-14T00:16:44.608Z,26.10
2019-04-14T00:19:12.843Z,21.33
2019-04-14T00:21:41.039Z,22.93
2019-04-14T00:24:07.996Z,24.90
2019-04-14T00:26:35.607Z,22.13
2019-04-14T00:29:04.583Z,22.57
2019-04-14T00:31:32.898Z,23.70
2019-04-14T00:34:02.907Z,24.73
2019-04-14T00:36:50.205Z,23.77
2019-04-14T00:39:29.504Z,23.03
2019-04-14T00:42:04.704Z,23.30
2019-04-14T00:44:43.004Z,20.60
2019-04-14T00:47:15.745Z,21.10
2019-04-14T00:49:43.797Z,20.80
2019-04-14T00:52:12.362Z,21.17
2019-04-14T00:54:39.605Z,24.03
2019-04-14T00:57:07.307Z,22.53
2019-04-14T00:59:35.247Z,22.20
2019-04-14T01:02:03.444Z,28.77
2019-04-14T01:04:31.544Z,27.20
2019-04-14T01:06:58.583Z,27.63
2019-04-14T01:09:26.131Z,22.07
2019-04-14T01:11:53.199Z,22.40
2019-04-14T01:14:21.306Z,25.43
2019-04-14T01:16:49.407Z,21.43
2019-04-14T01:19:17.643Z,22.87
2019-04-14T01:21:45.747Z,24.27
2019-04-14T01:24:14.166Z,20.97
2019-04-14T01:26:42.081Z,20.90
2019-04-14T01:29:10.045Z,20.93
2019-04-14T01:31:38.225Z,21.47
2019-04-14T01:34:06.338Z,24.10
2019-04-14T01:36:34.404Z,31.07
2019-04-14T01:39:02.536Z,23.97
2019-04-14T01:41:30.306Z,23.30
2019-04-14T01:43:58.264Z,21.73
2019-04-14T01:46:28.391Z,21.33
2019-04-14T01:48:54.368Z,20.77
2019-04-14T01:51:50.636Z,21.87
2019-04-14T01:54:36.691Z,21.60
2019-04-14T01:57:29.301Z,19.67
2019-04-14T01:59:58.860Z,19.17
2019-04-14T02:02:27.053Z,19.83
2019-04-14T02:04:55.268Z,19.80
2019-04-14T02:07:23.350Z,19.40
2019-04-14T02:09:51.083Z,20.27
2019-04-14T02:12:19.208Z,27.67
2019-04-14T02:14:47.327Z,25.40
2019-04-14T02:17:15.277Z,20.07
2019-04-14T02:19:43.774Z,22.90
2019-04-14T02:22:11.681Z,24.20
2019-04-14T02:24:39.566Z,23.40
2019-04-14T02:27:07.646Z,21.83
2019-04-14T02:29:34.590Z,23.70
2019-04-14T02:32:33.068Z,23.07
2019-04-14T02:34:57.228Z,22.33
2019-04-14T02:39:53.888Z,20.20
2019-04-14T02:44:53.765Z,20.63
2019-04-14T02:52:20.251Z,21.23
2019-04-14T02:54:51.952Z,20.73
2019-04-14T02:57:16.748Z,21.10
2019-04-14T02:59:45.360Z,22.40
2019-04-14T03:02:30.203Z,19.40
2019-04-14T03:04:44.854Z,18.50
2019-04-14T03:07:14.321Z,20.80
2019-04-14T03:09:42.279Z,22.27
2019-04-14T03:12:11.309Z,21.37
2019-04-14T03:14:40.462Z,19.50
2019-04-14T03:22:56.062Z,19.27
2019-04-14T03:25:27.772Z,23.80
2019-04-14T03:28:27.733Z,19.17
2019-04-14T03:31:25.522Z,18.90
2019-04-14T03:33:52.452Z,21.03
2019-04-14T03:36:40.099Z,23.63
2019-04-14T03:38:24.453Z,21.37
2019-04-14T03:41:03.774Z,24.63
2019-04-14T03:46:09.635Z,19.93
2019-04-14T03:50:57.761Z,21.07
2019-04-14T03:53:23.412Z,21.77
2019-04-14T03:56:09.790Z,20.00
2019-04-14T03:58:33.632Z,19.43
2019-04-14T04:01:01.788Z,21.67
2019-04-14T04:03:30.376Z,22.77
2019-04-14T04:05:58.536Z,21.53
2019-04-14T04:08:26.698Z,24.77
2019-04-14T04:10:55.427Z,23.43
2019-04-14T04:13:23.658Z,25.80
2019-04-14T04:15:51.985Z,24.17
2019-04-14T04:18:24.111Z,27.53
2019-04-14T04:21:03.201Z,24.10
2019-04-14T04:23:38.521Z,23.20
2019-04-14T04:26:37.069Z,24.70
2019-04-14T04:29:20.188Z,22.80
2019-04-14T04:32:16.434Z,26.87
2019-04-14T04:34:59.912Z,24.97
2019-04-14T04:37:41.208Z,27.37
2019-04-14T04:40:13.593Z,23.33
2019-04-14T04:42:41.618Z,21.83
2019-04-14T04:45:10.294Z,26.77
2019-04-14T04:47:38.354Z,20.77
2019-04-14T04:50:06.447Z,25.57
2019-04-14T04:52:34.368Z,22.23
2019-04-14T04:55:02.595Z,23.93
2019-04-14T04:57:30.439Z,24.10
2019-04-14T04:59:58.114Z,25.87
2019-04-14T05:02:25.072Z,22.33
2019-04-14T05:04:52.657Z,21.77
2019-04-14T05:07:20.886Z,26.70
2019-04-14T05:10:06.667Z,22.23
2019-04-14T05:12:50.155Z,26.60
2019-04-14T05:15:38.676Z,26.93
2019-04-14T05:18:07.134Z,32.37
2019-04-14T05:20:34.115Z,32.83
2019-04-14T05:23:01.596Z,29.67
2019-04-14T05:25:29.634Z,23.23
2019-04-14T05:27:58.159Z,24.07
2019-04-14T05:30:26.354Z,24.60
2019-04-14T05:32:54.359Z,23.87
2019-04-14T05:35:21.351Z,24.93
2019-04-14T05:37:48.651Z,22.83
2019-04-14T05:40:16.719Z,25.97
2019-04-14T05:42:45.029Z,26.33
2019-04-14T05:45:13.360Z,25.83
2019-04-14T05:47:41.388Z,24.60
2019-04-14T05:50:09.536Z,23.67
2019-04-14T05:52:38.167Z,24.37
2019-04-14T05:55:06.630Z,20.50
2019-04-14T05:57:35.185Z,22.60
2019-04-14T06:00:04.570Z,26.17
2019-04-14T06:02:33.498Z,23.23
2019-04-14T06:05:01.555Z,22.30
2019-04-14T06:07:28.452Z,22.77
2019-04-14T06:09:55.432Z,23.37
2019-04-14T06:12:22.463Z,23.20
2019-04-14T06:14:49.505Z,24.17
2019-04-14T06:17:16.304Z,22.45
2019-04-14T06:19:43.257Z,22.37
2019-04-14T06:22:10.016Z,22.17
2019-04-14T06:24:37.000Z,23.47
2019-04-14T06:27:04.157Z,25.45
2019-04-14T06:29:30.925Z,26.87
2019-04-14T06:32:19.528Z,23.50
2019-04-14T06:35:09.746Z,24.77
2019-04-14T06:37:42.177Z,24.63
2019-04-14T06:40:09.181Z,23.43
2019-04-14T06:42:36.200Z,24.15
2019-04-14T06:45:03.310Z,25.08
2019-04-14T06:47:30.208Z,25.30
2019-04-14T06:49:57.113Z,27.75
2019-04-14T06:52:23.893Z,23.98
2019-04-14T06:54:50.654Z,24.67
2019-04-14T06:57:17.559Z,23.77
2019-04-14T06:59:44.680Z,22.97
2019-04-14T07:02:11.541Z,23.95
2019-04-14T07:04:38.305Z,24.65
2019-04-14T07:07:05.460Z,26.40
2019-04-14T07:09:32.325Z,26.50
2019-04-14T07:11:59.104Z,23.63
2019-04-14T07:14:25.962Z,21.52
2019-04-14T07:16:52.979Z,23.05
2019-04-14T07:19:19.946Z,23.80
2019-04-14T07:21:46.728Z,27.58
2019-04-14T07:24:13.619Z,23.20
2019-04-14T07:26:40.756Z,22.70
2019-04-14T07:29:07.817Z,22.77
2019-04-14T07:31:57.522Z,22.45
2019-04-14T07:35:01.989Z,21.62
2019-04-14T07:38:06.293Z,23.95
2019-04-14T07:40:51.432Z,21.68
2019-04-14T07:43:31.087Z,21.85
2019-04-14T07:46:11.368Z,21.75
2019-04-14T07:48:52.362Z,21.33
2019-04-14T07:51:50.956Z,21.33
2019-04-14T07:54:37.665Z,19.87
2019-04-14T07:57:26.725Z,20.65
2019-04-14T07:59:58.583Z,21.27
2019-04-14T08:02:29.151Z,20.48
2019-04-14T08:05:07.480Z,22.45
2019-04-14T08:07:34.725Z,24.12
2019-04-14T08:10:01.631Z,22.77
2019-04-14T08:12:28.505Z,21.97
2019-04-14T08:14:55.621Z,21.95
2019-04-14T08:17:22.709Z,21.90
2019-04-14T08:19:49.492Z,22.22
2019-04-14T08:22:16.225Z,22.75
2019-04-14T08:24:43.236Z,22.65
2019-04-14T08:27:10.011Z,22.25
2019-04-14T08:29:37.179Z,21.95
2019-04-14T08:32:04.181Z,21.93
2019-04-14T08:34:31.114Z,20.92
2019-04-14T08:36:57.976Z,22.85
2019-04-14T08:39:25.216Z,23.20
2019-04-14T08:42:03.641Z,21.82
2019-04-14T08:44:40.948Z,21.40
2019-04-14T08:47:26.521Z,20.80
2019-04-14T08:49:56.642Z,18.60
2019-04-14T08:52:41.996Z,18.48
2019-04-14T08:55:17.491Z,19.37
2019-04-14T08:57:54.532Z,20.17
2019-04-14T09:00:28.662Z,18.65
2019-04-14T09:03:11.657Z,16.10
2019-04-14T09:06:03.594Z,18.12
2019-04-14T09:08:35.043Z,19.32
2019-04-14T09:11:03.676Z,18.32
2019-04-14T09:13:30.560Z,17.85
2019-04-14T09:15:58.142Z,19.02
2019-04-14T09:18:24.928Z,17.85
2019-04-14T09:20:52.828Z,20.62
2019-04-14T09:23:19.712Z,19.12
2019-04-14T09:25:46.752Z,17.30
2019-04-14T09:28:13.778Z,17.73
2019-04-14T09:30:40.565Z,16.97
2019-04-14T09:33:07.332Z,16.87
2019-04-14T09:35:34.220Z,16.77
2019-04-14T09:38:01.452Z,18.55
2019-04-14T09:40:28.210Z,18.15
2019-04-14T09:42:57.758Z,17.05
2019-04-14T09:45:24.613Z,16.93
2019-04-14T09:47:51.612Z,17.40
2019-04-14T09:50:18.555Z,18.23
2019-04-14T09:52:45.568Z,17.07
2019-04-14T09:55:12.693Z,17.67
2019-04-14T09:57:39.495Z,19.82
2019-04-14T10:00:07.026Z,18.25
2019-04-14T10:02:33.957Z,18.15
2019-04-14T10:05:00.740Z,17.92
2019-04-14T10:07:27.628Z,18.77
2019-04-14T10:09:54.509Z,19.10
2019-04-14T10:12:21.529Z,19.82
2019-04-14T10:14:48.625Z,18.55
2019-04-14T10:17:15.391Z,19.02
2019-04-14T10:19:42.247Z,17.98
2019-04-14T10:22:09.115Z,17.67
2019-04-14T10:24:36.013Z,17.75
2019-04-14T10:27:03.145Z,17.45
2019-04-14T10:29:30.120Z,16.37
2019-04-14T10:31:56.957Z,16.00
2019-04-14T10:34:23.719Z,15.18
2019-04-14T10:36:50.721Z,15.15
2019-04-14T10:39:17.757Z,15.55
2019-04-14T10:41:44.786Z,16.00
2019-04-14T10:44:11.681Z,15.13
2019-04-14T10:46:38.575Z,14.83
2019-04-14T10:49:05.432Z,15.32
2019-04-14T10:51:34.050Z,15.85
2019-04-14T10:54:00.894Z,15.10
2019-04-14T10:56:27.989Z,16.50
2019-04-14T10:58:55.055Z,15.70
2019-04-14T11:01:22.261Z,15.68
2019-04-14T11:03:49.188Z,16.02
2019-04-14T11:06:29.803Z,15.25
2019-04-14T11:08:56.976Z,15.08
2019-04-14T11:11:23.810Z,16.30
2019-04-14T11:13:50.958Z,15.88
2019-04-14T11:16:17.948Z,16.00
2019-04-14T11:18:44.758Z,15.40
2019-04-14T11:21:11.525Z,15.95
2019-04-14T11:23:38.281Z,15.38
2019-04-14T11:26:05.192Z,15.75
2019-04-14T11:28:32.008Z,15.95
2019-04-14T11:30:58.999Z,15.72
2019-04-14T11:33:45.465Z,16.15
2019-04-14T11:36:21.756Z,15.93
2019-04-14T11:38:53.640Z,15.40
2019-04-14T11:41:22.501Z,15.32
2019-04-14T11:43:49.404Z,16.87
2019-04-14T11:46:16.396Z,15.40
2019-04-14T11:48:43.211Z,15.83
2019-04-14T11:51:10.386Z,16.57
2019-04-14T11:53:37.533Z,16.42
2019-04-14T11:56:04.542Z,16.07
2019-04-14T11:58:31.646Z,15.98
2019-04-14T12:01:24.081Z,15.80
2019-04-14T12:03:59.816Z,15.53
2019-04-14T12:06:45.092Z,15.85
2019-04-14T12:09:21.282Z,15.58
2019-04-14T12:11:48.383Z,16.25
2019-04-14T12:14:15.176Z,15.50
2019-04-14T12:16:42.206Z,15.13
2019-04-14T12:19:09.180Z,15.13
2019-04-14T12:21:36.101Z,15.05
2019-04-14T12:24:03.159Z,16.23
2019-04-14T12:26:30.173Z,18.23
2019-04-14T12:28:58.386Z,18.55
2019-04-14T12:31:26.526Z,18.10
2019-04-14T12:33:54.301Z,18.57
2019-04-14T12:36:21.936Z,18.92
2019-04-14T12:38:48.697Z,18.70
2019-04-14T12:41:20.240Z,18.75
2019-04-14T12:44:13.892Z,18.10
2019-04-14T12:46:50.293Z,17.60
2019-04-14T12:49:27.960Z,17.37
2019-04-14T12:52:20.967Z,17.52
2019-04-14T12:54:41.831Z,17.57
2019-04-14T12:57:08.580Z,18.42
2019-04-14T12:59:36.035Z,17.95
2019-04-14T13:02:11.058Z,17.55
2019-04-14T13:04:38.468Z,16.02
2019-04-14T13:07:05.268Z,16.55
2019-04-14T13:09:32.138Z,17.95
2019-04-14T13:11:58.914Z,17.07
2019-04-14T13:14:26.349Z,15.98
2019-04-14T13:16:53.131Z,17.12
2019-04-14T13:19:19.976Z,16.10
2019-04-14T13:21:46.740Z,16.35
2019-04-14T13:24:13.843Z,17.73
2019-04-14T13:26:40.622Z,16.60
2019-04-14T13:29:07.489Z,17.27
2019-04-14T13:31:34.604Z,19.92
2019-04-14T13:34:02.137Z,17.73
2019-04-14T13:36:28.919Z,16.67
2019-04-14T13:38:55.726Z,18.12
2019-04-14T13:41:22.692Z,16.85
2019-04-14T13:43:49.699Z,16.07
2019-04-14T13:46:16.780Z,18.02
2019-04-14T13:48:43.667Z,18.05
2019-04-14T13:51:10.423Z,15.78
2019-04-14T13:53:37.224Z,15.58
2019-04-14T13:56:04.774Z,17.30
2019-04-14T13:58:31.572Z,19.35
2019-04-14T14:00:58.672Z,17.12
2019-04-14T14:03:26.052Z,15.15
2019-04-14T14:05:55.513Z,15.55
2019-04-14T14:08:22.642Z,16.65
2019-04-14T14:10:51.766Z,14.68
2019-04-14T14:13:39.980Z,17.00
2019-04-14T14:16:29.833Z,13.58
2019-04-14T14:19:19.382Z,13.13
2019-04-14T14:22:11.545Z,12.50
2019-04-14T14:24:58.434Z,10.75
2019-04-14T14:27:25.212Z,11.55
2019-04-14T14:29:51.980Z,10.60
2019-04-14T14:32:24.190Z,11.75
2019-04-14T14:34:51.177Z,10.58
2019-04-14T14:37:17.945Z,11.38
2019-04-14T14:39:44.793Z,11.12
2019-04-14T14:42:11.608Z,13.32
2019-04-14T14:44:43.521Z,10.80
2019-04-14T14:47:14.932Z,9.75
2019-04-14T14:49:56.368Z,10.10
2019-04-14T14:52:23.811Z,10.18
2019-04-14T14:54:50.580Z,9.15
2019-04-14T14:57:17.592Z,10.00
2019-04-14T15:00:01.755Z,8.65
2019-04-14T15:02:28.805Z,9.05
2019-04-14T15:04:55.590Z,8.53
2019-04-14T15:07:22.431Z,9.63
2019-04-14T15:09:49.419Z,9.08
2019-04-14T15:12:16.797Z,8.85
2019-04-14T15:14:43.621Z,8.55
2019-04-14T15:17:10.746Z,10.28
2019-04-14T15:19:37.780Z,10.60
2019-04-14T15:22:05.026Z,9.68
2019-04-14T15:24:31.881Z,9.53
2019-04-14T15:26:58.915Z,8.23
2019-04-14T15:29:25.845Z,7.83
2019-04-14T15:31:52.891Z,8.10
2019-04-14T15:34:19.884Z,8.60
2019-04-14T15:36:46.676Z,8.58
2019-04-14T15:39:14.094Z,8.75
2019-04-14T15:41:40.966Z,9.38
2019-04-14T15:44:08.186Z,8.20
2019-04-14T15:46:35.193Z,8.28
2019-04-14T15:49:02.567Z,8.10
2019-04-14T15:51:30.863Z,9.18
2019-04-14T15:53:57.715Z,10.03
2019-04-14T15:56:52.984Z,8.80
2019-04-14T15:59:39.706Z,10.68
2019-04-14T16:02:13.632Z,8.98
2019-04-14T16:04:46.360Z,8.80
2019-04-14T16:07:19.848Z,8.68
2019-04-14T16:10:01.335Z,8.58
2019-04-14T16:12:34.214Z,8.83
2019-04-14T16:15:29.249Z,7.33
2019-04-14T16:18:10.116Z,8.73
2019-04-14T16:20:38.699Z,8.48
2019-04-14T16:23:05.599Z,8.40
2019-04-14T16:25:52.571Z,7.78
2019-04-14T16:28:27.160Z,7.47
2019-04-14T16:31:13.608Z,8.05
2019-04-14T16:33:59.169Z,7.45
2019-04-14T16:36:26.078Z,7.92
2019-04-14T16:38:52.899Z,8.00
2019-04-14T16:41:20.243Z,8.77
2019-04-14T16:43:47.113Z,8.43
2019-04-14T16:46:14.157Z,8.40
2019-04-14T16:48:41.200Z,8.67
2019-04-14T16:51:11.177Z,9.75
2019-04-14T16:53:40.415Z,9.50
2019-04-14T16:56:25.860Z,13.57
2019-04-14T16:58:55.384Z,9.67
2019-04-14T17:01:42.393Z,8.17
2019-04-14T17:04:09.180Z,9.83
2019-04-14T17:06:36.196Z,8.30
2019-04-14T17:09:06.237Z,8.10
2019-04-14T17:11:33.021Z,10.00
2019-04-14T17:14:04.432Z,8.97
2019-04-14T17:16:54.180Z,12.53
2019-04-14T17:19:28.453Z,8.63
2019-04-14T17:22:17.955Z,8.90
2019-04-14T17:25:11.452Z,10.07
2019-04-14T17:27:42.341Z,8.07
2019-04-14T17:30:29.347Z,8.07
2019-04-14T17:33:16.939Z,7.67
2019-04-14T17:36:18.568Z,7.23
2019-04-14T17:39:04.328Z,7.03
2019-04-14T17:41:37.415Z,7.97
2019-04-14T17:44:11.009Z,8.00
2019-04-14T17:46:44.873Z,7.90
2019-04-14T17:49:29.835Z,7.93
2019-04-14T17:52:16.362Z,7.93
2019-04-14T17:54:52.303Z,8.90
2019-04-14T17:57:31.972Z,9.00
2019-04-14T18:00:17.091Z,9.03
2019-04-14T18:02:59.574Z,10.10
2019-04-14T18:05:33.948Z,11.03
2019-04-14T18:08:12.679Z,9.97
2019-04-14T18:10:47.299Z,8.90
2019-04-14T18:13:33.849Z,9.87
2019-04-14T18:16:04.995Z,9.27
2019-04-14T18:18:57.001Z,8.40
2019-04-14T18:21:23.800Z,8.73
2019-04-14T18:23:50.644Z,9.07
2019-04-14T18:26:17.628Z,8.97
2019-04-14T18:28:58.666Z,8.97
2019-04-14T18:31:39.257Z,9.03
2019-04-14T18:34:24.368Z,8.33
2019-04-14T18:36:56.476Z,11.13
2019-04-14T18:39:46.044Z,9.57
2019-04-14T18:42:18.112Z,13.07
2019-04-14T18:45:13.550Z,11.70
2019-04-14T18:48:05.828Z,8.83
2019-04-14T18:50:58.041Z,10.73
2019-04-14T18:53:38.905Z,10.70
2019-04-14T18:56:10.726Z,10.13
2019-04-14T18:58:57.526Z,9.43
2019-04-14T19:01:36.847Z,10.23
2019-04-14T19:04:04.080Z,8.73
2019-04-14T19:06:31.196Z,9.13
2019-04-14T19:08:58.449Z,8.77
2019-04-14T19:11:38.831Z,8.27
2019-04-14T19:14:06.456Z,9.20
2019-04-14T19:16:40.231Z,8.80
2019-04-14T19:19:07.739Z,8.43
2019-04-14T19:21:34.661Z,8.40
2019-04-14T19:24:01.679Z,8.50
2019-04-14T19:26:28.652Z,9.50
2019-04-14T19:28:55.866Z,9.83
2019-04-14T19:31:23.091Z,8.63
2019-04-14T19:33:51.807Z,8.03
2019-04-14T19:36:18.668Z,8.53
2019-04-14T19:38:45.738Z,8.53
2019-04-14T19:41:12.632Z,8.83
2019-04-14T19:43:39.837Z,8.20
2019-04-14T19:46:06.662Z,10.63
2019-04-14T19:48:47.867Z,22.73
2019-04-14T19:51:15.078Z,9.27
2019-04-14T19:53:41.852Z,10.60
2019-04-14T19:56:09.221Z,8.97
2019-04-14T19:58:36.132Z,8.97
2019-04-14T20:01:03.241Z,12.73
2019-04-14T20:03:30.560Z,12.97
2019-04-14T20:05:57.339Z,10.97
2019-04-14T20:08:24.317Z,11.20
2019-04-14T20:10:51.212Z,9.87
2019-04-14T20:13:18.077Z,8.93
2019-04-14T20:16:19.624Z,9.73
2019-04-14T20:19:10.641Z,8.60
2019-04-14T20:21:42.665Z,9.50
2019-04-14T20:24:15.134Z,8.23
2019-04-14T20:26:55.509Z,9.23
2019-04-14T20:29:26.074Z,10.73
2019-04-14T20:32:00.139Z,12.23
2019-04-14T20:34:27.004Z,10.10
2019-04-14T20:36:53.769Z,10.33
2019-04-14T20:39:21.245Z,9.33
2019-04-14T20:41:48.100Z,8.37
2019-04-14T20:44:15.097Z,9.13
2019-04-14T20:46:42.432Z,9.93
2019-04-14T20:49:09.587Z,10.50
2019-04-14T20:51:36.544Z,11.00
2019-04-14T20:54:03.544Z,10.60
2019-04-14T20:56:30.612Z,10.70
2019-04-14T20:58:57.481Z,9.80
2019-04-14T21:01:26.139Z,10.33
2019-04-14T21:04:28.035Z,10.27
2019-04-14T21:07:13.504Z,10.60
2019-04-14T21:09:48.018Z,11.13
2019-04-14T21:12:23.365Z,10.67
2019-04-14T21:14:58.487Z,9.70
2019-04-14T21:17:32.424Z,9.50
2019-04-14T21:20:05.489Z,9.93
2019-04-14T21:22:35.705Z,10.33
2019-04-14T21:25:25.404Z,9.70
2019-04-14T21:28:20.652Z,10.87
2019-04-14T21:30:55.125Z,9.53
2019-04-14T21:33:44.182Z,10.33
2019-04-14T21:36:18.776Z,10.37
2019-04-14T21:38:51.821Z,10.00
2019-04-14T21:41:24.404Z,10.00
2019-04-14T21:43:51.733Z,9.93
2019-04-14T21:46:18.540Z,9.47
2019-04-14T21:48:45.267Z,10.20
2019-04-14T21:51:12.012Z,10.20
2019-04-14T21:53:39.271Z,10.43
2019-04-14T21:56:13.348Z,10.30
2019-04-14T21:58:47.022Z,10.27
2019-04-14T22:01:51.393Z,10.53
2019-04-14T22:04:52.967Z,10.40
2019-04-14T22:07:30.275Z,11.73
2019-04-14T22:10:01.958Z,10.80
2019-04-14T22:12:28.805Z,10.33
2019-04-14T22:14:55.855Z,10.83
2019-04-14T22:17:22.786Z,10.80
2019-04-14T22:19:49.919Z,12.43
2019-04-14T22:22:16.674Z,10.43
2019-04-14T22:24:43.440Z,10.60
2019-04-14T22:27:10.305Z,10.57
2019-04-14T22:29:37.465Z,11.20
2019-04-14T22:32:05.115Z,11.27
2019-04-14T22:34:32.370Z,11.37
2019-04-14T22:36:59.483Z,10.70
2019-04-14T22:39:27.049Z,10.33
2019-04-14T22:41:54.833Z,10.73
2019-04-14T22:44:22.167Z,11.07
2019-04-14T22:46:49.816Z,11.57
2019-04-14T22:49:17.241Z,11.87
2019-04-14T22:51:44.335Z,11.60
2019-04-14T22:54:11.562Z,10.80
2019-04-14T22:56:39.777Z,11.60
2019-04-14T22:59:07.017Z,11.57
2019-04-14T23:01:36.556Z,11.13
2019-04-14T23:04:32.925Z,12.13
2019-04-14T23:24:39.400Z,11.67
2019-04-14T23:27:06.561Z,11.20
2019-04-14T23:29:33.578Z,12.20
2019-04-14T23:32:00.952Z,12.37
2019-04-14T23:34:28.169Z,12.57
2019-04-14T23:36:56.120Z,12.53
2019-04-14T23:39:23.113Z,12.30
2019-04-14T23:41:50.193Z,13.00
2019-04-14T23:44:18.196Z,12.67
2019-04-14T23:46:45.688Z,12.90
2019-04-14T23:49:13.068Z,12.87
2019-04-14T23:51:40.095Z,12.03
2019-04-14T23:54:07.429Z,12.70
2019-04-14T23:56:34.764Z,12.77
2019-04-14T23:59:02.166Z,13.37
